Masvingo, Zimbabwe

9:56 AM CAT on April 24, 2017 (GMT +0200)
Masvingo | | Change Station

Elev 3593 ft 20.07 °S, 30.87 °E | Updated 56 minutes ago

Rain
Rain
55 °F
Feels Like 55 °F
N
1
Wind Variable Wind from East

Today
High -- | Low -- °F
--% Chance of Precip.
Yesterday
High -- | Low -- °F
Precip. -- in
Pressure 30.24 in
Visibility 6.2 miles
Clouds Few 600 ft
Mostly Cloudy 1000 ft
Overcast 8000 ft
Dew Point 54 °F
Humidity 94%
Rainfall 0.00 in
Snow Depth Not available.
6:10 AM 5:38 PM
Waning Crescent, 7% visible
METAR FVMV 240700Z 10001KT 9999 -RA FEW006 BKN010 OVC080 13/12 Q1024
Pressure 30.24 in
Visibility 6.2 miles
Clouds Few 600 ft
Mostly Cloudy 1000 ft
Overcast 8000 ft
Dew Point 54 °F
Humidity 94%
Rainfall 0.00 in
Snow Depth Not available.
6:10 AM 5:38 PM
Waning Crescent, 7% visible
METAR FVMV 240700Z 10001KT 9999 -RA FEW006 BKN010 OVC080 13/12 Q1024

Get Severe Weather Alerts

Thanks for signing up!

Be on the lookout for a verification email in your inbox.

You'll start receiving the daily forecast at 8 AM.

×

10-Day Weather Forecast

No radar image for this location.
×

Almanac

Astronomy

Apr. 24, 2017 Rise Set
Actual Time
Civil Twilight
Nautical Twilight
Astronomical Twilight
Moon
Length of Visible Light
Length of Day
Tomorrow will be .
, % of the Moon is Illuminated

Today's Extremes

Country Highs Country Lows

Community

WunderPhotos

WunderBlog® & News

Nearby

Air Quality

  Air Quality AQ Index Pollutant
Not available.

Snow Depth

Station Depth Elevation

Earthquake Activity

City Distance Mag. Time & Date
Minimum magnitude displayed is 2.5.

Coastal Water Temperatures

Place Temperature

Stations

Nearby Weather Stations

Station Location Temp. Windchill Dew Point Humidity Wind Precip. Elev Updated Type